createdAt,value
2023-04-01T00:01:49.106Z,12.00
2023-04-01T00:04:16.939Z,9.77
2023-04-01T00:06:44.235Z,13.40
2023-04-01T00:09:11.407Z,12.48
2023-04-01T00:11:38.571Z,9.98
2023-04-01T00:14:06.686Z,11.73
2023-04-01T00:16:33.871Z,9.82
2023-04-01T00:19:01.185Z,13.60
2023-04-01T00:21:28.105Z,8.90
2023-04-01T00:23:54.996Z,12.50
2023-04-01T00:26:22.976Z,13.35
2023-04-01T00:28:50.841Z,12.55
2023-04-01T00:31:17.877Z,9.15
2023-04-01T00:33:45.741Z,11.65
2023-04-01T00:36:19.309Z,8.43
2023-04-01T00:38:46.905Z,9.48
2023-04-01T00:41:15.948Z,10.00
2023-04-01T00:43:44.906Z,12.07
2023-04-01T00:46:12.306Z,13.65
2023-04-01T00:48:56.436Z,9.23
2023-04-01T00:51:26.932Z,9.88
2023-04-01T00:53:56.921Z,12.20
2023-04-01T00:56:50.812Z,9.30
2023-04-01T00:59:25.522Z,11.32
2023-04-01T01:01:52.628Z,17.27
2023-04-01T01:04:30.928Z,17.40
2023-04-01T01:06:58.102Z,17.63
2023-04-01T01:09:52.330Z,14.07
2023-04-01T01:12:48.798Z,12.48
2023-04-01T01:15:27.060Z,23.10
2023-04-01T01:18:03.653Z,15.55
2023-04-01T01:20:48.927Z,19.10
2023-04-01T01:23:53.319Z,17.92
2023-04-01T01:26:52.554Z,17.35
2023-04-01T01:29:25.592Z,18.63
2023-04-01T01:32:17.269Z,13.55
2023-04-01T01:35:18.592Z,16.40
2023-04-01T01:37:47.078Z,18.42
2023-04-01T01:40:16.220Z,19.02
2023-04-01T01:42:49.327Z,21.15
2023-04-01T01:45:19.609Z,26.25
2023-04-01T01:47:47.261Z,21.10
2023-04-01T01:50:16.008Z,25.35
2023-04-01T01:52:43.160Z,25.13
2023-04-01T01:55:35.920Z,20.88
2023-04-01T01:58:26.099Z,23.77
2023-04-01T02:01:04.991Z,18.88
2023-04-01T02:03:36.849Z,24.33
2023-04-01T02:06:08.077Z,22.20
2023-04-01T02:08:45.965Z,23.77
2023-04-01T02:11:22.598Z,17.05
2023-04-01T02:13:55.815Z,21.67
2023-04-01T02:16:44.984Z,19.95
2023-04-01T02:19:14.354Z,25.40
2023-04-01T02:21:43.683Z,26.10
2023-04-01T02:24:14.854Z,26.05
2023-04-01T02:26:42.546Z,22.70
2023-04-01T02:29:12.487Z,24.70
2023-04-01T02:31:39.895Z,25.42
2023-04-01T02:34:07.316Z,22.77
2023-04-01T02:36:37.258Z,28.48
2023-04-01T02:39:05.725Z,17.33
2023-04-01T02:41:32.749Z,17.95
2023-04-01T02:44:00.430Z,24.40
2023-04-01T02:46:27.351Z,21.17
2023-04-01T02:48:54.828Z,24.85
2023-04-01T02:51:21.707Z,24.83
2023-04-01T02:53:48.725Z,18.48
2023-04-01T02:56:15.984Z,20.05
2023-04-01T02:58:42.864Z,24.67
2023-04-01T03:01:09.851Z,20.98
2023-04-01T03:03:37.138Z,17.80
2023-04-01T03:06:12.806Z,11.50
2023-04-01T03:08:40.274Z,12.85
2023-04-01T03:11:07.684Z,15.25
2023-04-01T03:13:34.569Z,18.50
2023-04-01T03:16:01.411Z,9.63
2023-04-01T03:18:28.524Z,15.93
2023-04-01T03:20:55.472Z,16.88
2023-04-01T03:23:22.336Z,13.90
2023-04-01T03:25:49.239Z,15.13
2023-04-01T03:28:22.165Z,21.02
2023-04-01T03:30:49.338Z,12.60
2023-04-01T03:33:16.314Z,19.88
2023-04-01T03:35:43.263Z,16.85
2023-04-01T03:38:10.409Z,18.88
2023-04-01T03:40:39.381Z,16.02
2023-04-01T03:43:09.448Z,19.58
2023-04-01T03:45:36.891Z,18.88
2023-04-01T03:48:03.875Z,16.38
2023-04-01T03:50:31.226Z,21.55
2023-04-01T03:52:59.218Z,18.20
2023-04-01T03:55:26.501Z,14.82
2023-04-01T03:57:53.498Z,17.92
2023-04-01T04:00:20.895Z,18.92
2023-04-01T04:02:48.124Z,17.00
2023-04-01T04:05:15.389Z,19.08
2023-04-01T04:07:42.286Z,18.33
2023-04-01T04:10:09.661Z,14.13
2023-04-01T04:12:36.737Z,23.73
2023-04-01T04:15:04.096Z,17.27
2023-04-01T04:17:30.956Z,16.83
2023-04-01T04:19:57.939Z,23.70
2023-04-01T04:22:25.004Z,16.23
2023-04-01T04:24:52.113Z,19.92
2023-04-01T04:27:18.999Z,22.30
2023-04-01T04:29:46.086Z,22.05
2023-04-01T04:32:13.002Z,25.05
2023-04-01T04:34:39.925Z,24.83
2023-04-01T04:37:06.820Z,23.15
2023-04-01T04:39:33.937Z,19.85
2023-04-01T04:42:01.095Z,19.67
2023-04-01T04:44:28.028Z,19.83
2023-04-01T04:46:57.110Z,19.98
2023-04-01T04:49:26.588Z,19.75
2023-04-01T04:51:53.482Z,19.40
2023-04-01T04:54:20.663Z,21.30
2023-04-01T04:56:47.491Z,17.67
2023-04-01T04:59:14.384Z,16.58
2023-04-01T05:01:41.546Z,19.38
2023-04-01T05:04:08.507Z,20.00
2023-04-01T05:06:35.619Z,21.45
2023-04-01T05:09:02.534Z,17.92
2023-04-01T05:11:30.982Z,15.32
2023-04-01T05:13:58.010Z,19.55
2023-04-01T05:16:25.021Z,15.23
2023-04-01T05:18:52.455Z,17.67
2023-04-01T05:21:19.665Z,17.20
2023-04-01T05:23:46.781Z,15.88
2023-04-01T05:26:15.586Z,15.10
2023-04-01T05:28:43.110Z,15.50
2023-04-01T05:31:10.372Z,15.68
2023-04-01T05:33:37.256Z,17.95
2023-04-01T05:36:12.452Z,12.50
2023-04-01T05:38:40.074Z,12.13
2023-04-01T05:41:07.222Z,15.57
2023-04-01T05:43:37.280Z,12.57
2023-04-01T05:46:04.254Z,14.23
2023-04-01T05:48:31.427Z,15.65
2023-04-01T05:50:58.687Z,14.40
2023-04-01T05:53:25.801Z,16.20
2023-04-01T05:55:52.877Z,13.55
2023-04-01T05:58:20.027Z,14.77
2023-04-01T06:00:47.947Z,12.77
2023-04-01T06:03:15.359Z,12.18
2023-04-01T06:05:44.565Z,13.07
2023-04-01T06:08:20.517Z,13.07
2023-04-01T06:10:56.505Z,16.70
2023-04-01T06:13:31.917Z,14.43
2023-04-01T06:16:22.829Z,14.77
2023-04-01T06:18:52.999Z,13.15
2023-04-01T06:21:52.691Z,12.70
2023-04-01T06:24:27.732Z,9.93
2023-04-01T06:27:13.662Z,11.90
2023-04-01T06:30:02.121Z,11.20
2023-04-01T06:32:47.898Z,11.20
2023-04-01T06:35:47.140Z,13.57
2023-04-01T06:38:40.439Z,13.52
2023-04-01T06:41:17.934Z,12.48
2023-04-01T06:44:00.448Z,11.07
2023-04-01T06:46:38.488Z,14.73
2023-04-01T06:49:30.794Z,12.70
2023-04-01T06:52:32.335Z,11.57
2023-04-01T06:55:20.699Z,11.23
2023-04-01T06:57:56.590Z,10.23
2023-04-01T07:00:39.310Z,14.32
2023-04-01T07:03:23.669Z,14.25
2023-04-01T07:05:51.691Z,12.32
2023-04-01T07:08:26.825Z,11.80
2023-04-01T07:10:58.604Z,11.68
2023-04-01T07:13:40.777Z,10.57
2023-04-01T07:16:20.791Z,11.48
2023-04-01T07:18:55.564Z,12.07
2023-04-01T07:21:45.401Z,9.73
2023-04-01T07:24:22.527Z,8.98
2023-04-01T07:26:56.951Z,9.43
2023-04-01T07:29:24.366Z,8.90
2023-04-01T07:32:20.076Z,7.57
2023-04-01T07:35:02.007Z,9.90
2023-04-01T07:38:11.620Z,9.27
2023-04-01T07:40:50.392Z,9.10
2023-04-01T07:43:25.947Z,8.20
2023-04-01T07:46:01.814Z,6.25
2023-04-01T07:48:58.307Z,9.45
2023-04-01T07:51:38.008Z,7.40
2023-04-01T07:54:12.260Z,9.80
2023-04-01T07:56:52.802Z,7.78
2023-04-01T07:59:38.415Z,6.90
2023-04-01T08:02:30.363Z,6.55
2023-04-01T08:05:16.146Z,5.82
2023-04-01T08:08:18.425Z,6.80
2023-04-01T08:11:07.487Z,7.93
2023-04-01T08:13:45.322Z,5.78
2023-04-01T08:16:25.547Z,4.90
2023-04-01T08:19:19.747Z,5.63
2023-04-01T08:21:53.837Z,12.05
2023-04-01T08:24:46.484Z,6.20
2023-04-01T08:27:27.454Z,6.53
2023-04-01T08:30:08.823Z,8.23
2023-04-01T08:32:40.938Z,5.75
2023-04-01T08:35:11.018Z,6.07
2023-04-01T08:37:41.202Z,5.10
2023-04-01T08:40:26.719Z,6.95
2023-04-01T08:43:05.761Z,5.50
2023-04-01T08:45:32.832Z,5.72
2023-04-01T08:48:38.266Z,5.57
2023-04-01T08:51:34.696Z,8.30
2023-04-01T08:54:32.254Z,6.15
2023-04-01T08:57:27.423Z,5.05
2023-04-01T09:00:04.374Z,7.32
2023-04-01T09:03:03.961Z,4.82
2023-04-01T09:06:08.460Z,4.95
2023-04-01T09:08:35.519Z,5.53
2023-04-01T09:11:14.435Z,4.22
2023-04-01T09:14:18.432Z,6.03
2023-04-01T09:16:55.138Z,6.13
2023-04-01T09:19:43.970Z,8.27
2023-04-01T09:22:18.656Z,9.32
2023-04-01T09:25:04.281Z,6.90
2023-04-01T09:28:16.235Z,8.88
2023-04-01T09:31:01.531Z,6.75
2023-04-01T09:33:47.638Z,7.10
2023-04-01T09:36:34.916Z,6.53
2023-04-01T09:39:28.046Z,9.32
2023-04-01T09:42:01.488Z,7.18
2023-04-01T09:44:36.749Z,8.52
2023-04-01T09:47:28.930Z,10.90
2023-04-01T09:50:08.059Z,7.05
2023-04-01T09:52:53.568Z,6.57
2023-04-01T09:55:46.800Z,7.35
2023-04-01T09:58:25.741Z,7.88
2023-04-01T10:01:00.462Z,7.40
2023-04-01T10:03:47.164Z,10.30
2023-04-01T10:06:25.973Z,8.55
2023-04-01T10:09:23.282Z,6.55
2023-04-01T10:12:20.856Z,7.57
2023-04-01T10:15:14.047Z,6.82
2023-04-01T10:18:06.246Z,5.45
2023-04-01T10:21:24.174Z,3.33
2023-04-01T10:24:17.536Z,3.80
2023-04-01T10:27:02.815Z,3.97
2023-04-01T10:30:14.935Z,3.08
2023-04-01T10:32:57.476Z,1.42
2023-04-01T10:35:54.443Z,1.75
2023-04-01T10:38:42.899Z,3.08
2023-04-01T10:41:34.843Z,2.75
2023-04-01T10:44:14.267Z,1.65
2023-04-01T10:46:56.095Z,2.35
2023-04-01T10:49:39.048Z,4.53
2023-04-01T10:52:43.607Z,5.00
2023-04-01T10:55:51.788Z,2.97
2023-04-01T10:58:27.870Z,4.10
2023-04-01T11:01:13.767Z,5.30
2023-04-01T11:03:52.472Z,3.42
2023-04-01T11:07:04.255Z,2.58
2023-04-01T11:09:59.301Z,2.63
2023-04-01T11:12:45.096Z,4.90
2023-04-01T11:15:30.329Z,4.13
2023-04-01T11:18:43.672Z,9.13
2023-04-01T11:21:51.935Z,4.22
2023-04-01T11:24:37.426Z,3.97
2023-04-01T11:27:39.933Z,3.22
2023-04-01T11:30:40.983Z,4.70
2023-04-01T11:33:32.231Z,3.40
2023-04-01T11:36:11.905Z,5.32
2023-04-01T11:39:01.691Z,3.10
2023-04-01T11:41:49.777Z,4.60
2023-04-01T11:44:19.112Z,3.58
2023-04-01T11:46:53.998Z,4.07
2023-04-01T11:49:35.105Z,2.33
2023-04-01T11:52:33.471Z,2.42
2023-04-01T11:55:26.249Z,3.38
2023-04-01T11:58:07.829Z,2.75
2023-04-01T12:01:02.337Z,2.97
2023-04-01T12:04:03.024Z,7.45
2023-04-01T12:06:53.298Z,2.85
2023-04-01T12:09:57.817Z,2.33
2023-04-01T12:13:01.683Z,1.52
2023-04-01T12:15:51.306Z,4.45
2023-04-01T12:18:33.360Z,3.05
2023-04-01T12:21:34.467Z,4.57
2023-04-01T12:24:22.708Z,3.80
2023-04-01T12:27:21.155Z,1.90
2023-04-01T12:30:11.410Z,3.65
2023-04-01T12:32:47.417Z,3.92
2023-04-01T12:35:42.302Z,5.88
2023-04-01T12:38:32.764Z,3.20
2023-04-01T12:41:18.586Z,2.05
2023-04-01T12:44:15.598Z,1.50
2023-04-01T12:47:01.539Z,6.40
2023-04-01T12:49:49.699Z,3.35
2023-04-01T12:52:55.494Z,2.33
2023-04-01T12:55:44.302Z,1.40
2023-04-01T12:58:28.880Z,2.97
2023-04-01T13:01:08.430Z,2.92
2023-04-01T13:03:56.934Z,1.85
2023-04-01T13:06:42.608Z,2.92
2023-04-01T13:09:29.269Z,1.88
2023-04-01T13:12:08.487Z,3.53
2023-04-01T13:14:44.049Z,1.38
2023-04-01T13:18:03.142Z,3.45
2023-04-01T13:20:35.700Z,1.33
2023-04-01T13:23:28.644Z,2.03
2023-04-01T13:26:22.923Z,2.65
2023-04-01T13:29:24.885Z,3.20
2023-04-01T13:32:03.598Z,2.58
2023-04-01T13:34:55.579Z,4.10
2023-04-01T13:37:28.304Z,1.75
2023-04-01T13:40:13.886Z,2.08
2023-04-01T13:43:03.729Z,2.92
2023-04-01T13:46:08.867Z,1.40
2023-04-01T13:49:14.142Z,5.28
2023-04-01T13:52:21.951Z,3.13
2023-04-01T13:55:21.174Z,3.20
2023-04-01T13:57:59.963Z,2.83
2023-04-01T14:01:04.230Z,1.45
2023-04-01T14:04:06.118Z,2.95
2023-04-01T14:06:47.306Z,1.92
2023-04-01T14:09:20.955Z,1.27
2023-04-01T14:12:17.420Z,1.48
2023-04-01T14:15:08.601Z,1.52
2023-04-01T14:18:13.962Z,1.35
2023-04-01T14:21:10.215Z,2.45
2023-04-01T14:23:56.090Z,2.40
2023-04-01T14:26:52.887Z,1.55
2023-04-01T14:29:29.342Z,1.90
2023-04-01T14:32:19.176Z,1.10
2023-04-01T14:35:11.710Z,2.33
2023-04-01T14:37:58.058Z,1.33
2023-04-01T14:40:36.423Z,2.55
2023-04-01T14:43:26.509Z,1.20
2023-04-01T14:46:27.333Z,2.83
2023-04-01T14:49:26.270Z,1.65
2023-04-01T14:51:54.206Z,1.75
2023-04-01T14:54:37.564Z,2.80
2023-04-01T14:57:14.701Z,5.25
2023-04-01T14:59:52.124Z,1.38
2023-04-01T15:02:54.501Z,2.38
2023-04-01T15:05:40.017Z,1.30
2023-04-01T15:08:41.976Z,2.92
2023-04-01T15:11:30.720Z,3.13
2023-04-01T15:14:19.370Z,2.90
2023-04-01T15:20:20.756Z,7.05
2023-04-01T15:23:22.125Z,2.92
2023-04-01T15:25:54.747Z,3.67
2023-04-01T15:28:24.715Z,5.18
2023-04-01T15:30:51.850Z,1.50
2023-04-01T15:33:32.689Z,2.38
2023-04-01T15:36:47.066Z,2.10
2023-04-01T15:39:31.354Z,4.07
2023-04-01T15:42:33.386Z,1.27
2023-04-01T15:45:05.044Z,6.13
2023-04-01T15:48:14.902Z,2.90
2023-04-01T15:50:56.091Z,3.15
2023-04-01T15:53:37.442Z,3.90
2023-04-01T15:56:22.892Z,3.38
2023-04-01T15:58:55.561Z,1.67
2023-04-01T16:01:54.887Z,2.13
2023-04-01T16:04:43.296Z,4.28
2023-04-01T16:07:31.817Z,2.75
2023-04-01T16:10:27.270Z,9.73
2023-04-01T16:13:12.366Z,2.72
2023-04-01T16:15:46.995Z,3.17
2023-04-01T16:18:31.810Z,3.78
2023-04-01T16:21:25.922Z,6.75
2023-04-01T16:24:07.182Z,3.75
2023-04-01T16:26:57.284Z,8.52
2023-04-01T16:29:46.426Z,10.23
2023-04-01T16:32:23.875Z,8.85
2023-04-01T16:35:24.117Z,8.30
2023-04-01T16:38:02.345Z,5.57
2023-04-01T16:41:00.098Z,6.50
2023-04-01T16:43:36.687Z,6.88
2023-04-01T16:46:37.828Z,9.98
2023-04-01T16:49:13.901Z,5.85
2023-04-01T16:52:09.582Z,7.32
2023-04-01T16:55:01.138Z,5.97
2023-04-01T16:57:53.163Z,6.93
2023-04-01T17:00:49.476Z,9.18
2023-04-01T17:03:30.456Z,7.03
2023-04-01T17:06:25.253Z,9.05
2023-04-01T17:09:18.035Z,4.25
2023-04-01T17:12:07.002Z,8.10
2023-04-01T17:14:43.240Z,6.65
2023-04-01T17:17:29.280Z,7.45
2023-04-01T17:20:10.180Z,7.38
2023-04-01T17:23:01.217Z,5.90
2023-04-01T17:25:47.922Z,6.65
2023-04-01T17:28:30.189Z,8.45
2023-04-01T17:31:02.871Z,9.88
2023-04-01T17:33:44.915Z,7.07
2023-04-01T17:36:17.700Z,6.75
2023-04-01T17:38:50.776Z,8.13
2023-04-01T17:41:48.583Z,6.72
2023-04-01T17:44:37.413Z,8.13
2023-04-01T17:47:26.614Z,6.60
2023-04-01T17:49:53.525Z,8.65
2023-04-01T17:52:29.871Z,5.18
2023-04-01T17:55:31.262Z,5.22
2023-04-01T17:58:23.770Z,8.70
2023-04-01T18:01:09.746Z,6.40
2023-04-01T18:04:06.091Z,8.90
2023-04-01T18:06:53.480Z,8.63
2023-04-01T18:09:49.399Z,9.77
2023-04-01T18:12:37.441Z,6.47
2023-04-01T18:15:49.168Z,7.68
2023-04-01T18:18:17.077Z,5.47
2023-04-01T18:21:00.045Z,6.47
2023-04-01T18:23:42.922Z,7.63
2023-04-01T18:26:31.998Z,5.28
2023-04-01T18:29:12.464Z,8.15
2023-04-01T18:31:44.906Z,7.93
2023-04-01T18:34:38.971Z,5.82
2023-04-01T18:37:26.306Z,6.15
2023-04-01T18:40:12.086Z,6.05
2023-04-01T18:43:10.702Z,6.93
2023-04-01T18:45:52.907Z,7.43
2023-04-01T18:48:54.564Z,7.68
2023-04-01T18:51:39.759Z,6.47
2023-04-01T18:54:28.109Z,8.77
2023-04-01T18:57:05.086Z,6.70
2023-04-01T18:59:46.318Z,7.28
2023-04-01T19:02:34.739Z,9.75
2023-04-01T19:05:01.697Z,8.65
2023-04-01T19:07:42.313Z,6.68
2023-04-01T19:10:21.431Z,7.30
2023-04-01T19:13:14.174Z,7.75
2023-04-01T19:15:46.778Z,10.05
2023-04-01T19:18:55.468Z,9.13
2023-04-01T19:21:40.395Z,8.07
2023-04-01T19:24:13.684Z,8.25
2023-04-01T19:26:59.435Z,10.15
2023-04-01T19:29:51.980Z,6.95
2023-04-01T19:32:47.919Z,6.35
2023-04-01T19:35:14.765Z,8.05
2023-04-01T19:37:57.626Z,7.30
2023-04-01T19:40:42.774Z,8.32
2023-04-01T19:43:22.267Z,7.90
2023-04-01T19:46:07.078Z,7.20
2023-04-01T19:48:46.498Z,11.35
2023-04-01T19:51:31.429Z,9.65
2023-04-01T19:54:22.544Z,9.48
2023-04-01T19:57:06.343Z,9.43
2023-04-01T19:59:51.568Z,12.50
2023-04-01T20:02:27.903Z,14.73
2023-04-01T20:04:57.458Z,11.30
2023-04-01T20:07:42.489Z,12.25
2023-04-01T20:10:21.624Z,15.38
2023-04-01T20:13:07.203Z,14.23
2023-04-01T20:15:46.666Z,17.17
2023-04-01T20:18:19.553Z,14.25
2023-04-01T20:21:18.045Z,15.48
2023-04-01T20:24:26.278Z,14.25
2023-04-01T20:27:27.631Z,14.15
2023-04-01T20:30:03.631Z,15.07
2023-04-01T20:33:08.557Z,18.70
2023-04-01T20:36:08.794Z,14.63
2023-04-01T20:38:58.412Z,15.02
2023-04-01T20:41:32.736Z,21.60
2023-04-01T20:44:36.684Z,18.48
2023-04-01T20:47:06.444Z,25.33
2023-04-01T20:49:55.568Z,22.25
2023-04-01T20:52:44.171Z,16.98
2023-04-01T20:55:24.756Z,22.02
2023-04-01T20:58:10.135Z,20.27
2023-04-01T21:00:51.681Z,18.23
2023-04-01T21:03:39.757Z,25.45
2023-04-01T21:06:09.422Z,16.40
2023-04-01T21:09:24.237Z,24.85
2023-04-01T21:12:09.639Z,23.73
2023-04-01T21:15:30.832Z,27.33
2023-04-01T21:18:18.958Z,28.38
2023-04-01T21:21:27.420Z,29.08
2023-04-01T21:24:36.880Z,20.70
2023-04-01T21:27:27.224Z,31.17
2023-04-01T21:30:32.630Z,24.58
2023-04-01T21:33:26.543Z,30.40
2023-04-01T21:36:20.922Z,30.05
2023-04-01T21:39:20.030Z,28.42
2023-04-01T21:42:08.053Z,43.75
2023-04-01T21:45:09.037Z,31.13
2023-04-01T21:48:13.135Z,33.60
2023-04-01T21:51:08.582Z,29.88
2023-04-01T21:54:03.064Z,35.97
2023-04-01T21:57:01.259Z,29.00
2023-04-01T22:00:04.510Z,37.47
2023-04-01T22:02:40.566Z,30.92
2023-04-01T22:05:20.478Z,31.35
2023-04-01T22:07:59.797Z,24.65
2023-04-01T22:10:35.757Z,24.88
2023-04-01T22:13:13.302Z,24.45
2023-04-01T22:15:47.501Z,25.70
2023-04-01T22:18:38.104Z,23.45
2023-04-01T22:21:22.527Z,23.40
2023-04-01T22:24:18.150Z,20.92
2023-04-01T22:27:03.156Z,28.38
2023-04-01T22:29:42.988Z,26.30
2023-04-01T22:32:23.104Z,25.77
2023-04-01T22:34:56.854Z,32.95
2023-04-01T22:37:47.646Z,33.55
2023-04-01T22:40:51.686Z,41.92
2023-04-01T22:43:40.720Z,52.63
2023-04-01T22:46:16.568Z,38.00
2023-04-01T22:49:23.713Z,39.80
2023-04-01T22:51:58.664Z,30.58
2023-04-01T22:54:33.764Z,35.03
2023-04-01T22:57:13.610Z,41.95
2023-04-01T22:59:53.709Z,35.88
2023-04-01T23:02:28.499Z,35.10
2023-04-01T23:04:59.357Z,39.15
2023-04-01T23:07:37.930Z,36.28
2023-04-01T23:10:13.212Z,35.90
2023-04-01T23:12:42.145Z,32.35
2023-04-01T23:15:15.200Z,35.05
2023-04-01T23:17:54.839Z,26.70
2023-04-01T23:20:55.573Z,41.50
2023-04-01T23:23:28.264Z,37.38
2023-04-01T23:26:01.392Z,29.35
2023-04-01T23:28:42.685Z,25.75
2023-04-01T23:31:30.819Z,39.78
2023-04-01T23:34:20.678Z,32.28
2023-04-01T23:36:54.136Z,26.27
2023-04-01T23:39:21.156Z,40.90
2023-04-01T23:41:48.450Z,28.23
2023-04-01T23:44:16.718Z,21.65
2023-04-01T23:46:46.969Z,26.67
2023-04-01T23:49:20.114Z,21.08
2023-04-01T23:51:57.879Z,25.42
2023-04-01T23:55:00.792Z,28.60
2023-04-01T23:57:33.451Z,24.45
